createdAt,value
2023-04-12T00:02:42.735Z,49.78
2023-04-12T00:07:47.118Z,49.04
2023-04-12T00:12:49.783Z,48.83
2023-04-12T00:17:52.013Z,49.18
2023-04-12T00:22:54.180Z,51.59
2023-04-12T00:27:56.538Z,52.33
2023-04-12T00:32:59.770Z,53.40
2023-04-12T00:38:03.987Z,53.71
2023-04-12T00:43:06.098Z,52.35
2023-04-12T00:48:08.559Z,51.79
2023-04-12T00:53:13.878Z,52.88
2023-04-12T00:58:16.892Z,52.06
2023-04-12T01:03:24.353Z,52.06
2023-04-12T01:08:40.894Z,51.00
2023-04-12T01:13:49.857Z,51.33
2023-04-12T01:18:54.366Z,52.71
2023-04-12T01:24:14.988Z,52.02
2023-04-12T01:29:20.028Z,50.90
2023-04-12T01:34:25.270Z,50.71
2023-04-12T01:39:28.675Z,52.64
2023-04-12T01:44:30.859Z,52.47
2023-04-12T01:49:43.499Z,53.98
2023-04-12T01:54:51.422Z,51.80
2023-04-12T01:59:57.295Z,51.25
2023-04-12T02:05:01.120Z,51.12
2023-04-12T02:10:03.716Z,52.38
2023-04-12T02:15:08.397Z,55.57
2023-04-12T02:20:12.199Z,54.56
2023-04-12T02:25:15.798Z,55.48
2023-04-12T02:30:18.205Z,54.05
2023-04-12T02:35:20.521Z,53.47
2023-04-12T02:40:22.923Z,52.42
2023-04-12T02:45:25.035Z,52.38
2023-04-12T02:50:27.347Z,51.84
2023-04-12T02:55:30.908Z,52.28
2023-04-12T03:00:33.176Z,52.42
2023-04-12T03:05:35.316Z,51.84
2023-04-12T03:10:37.475Z,52.74
2023-04-12T03:15:40.178Z,53.20
2023-04-12T03:20:46.810Z,54.96
2023-04-12T03:25:49.584Z,53.04
2023-04-12T03:30:51.832Z,53.84
2023-04-12T03:35:54.113Z,52.84
2023-04-12T03:40:56.243Z,51.86
2023-04-12T03:45:58.693Z,51.27
2023-04-12T03:51:08.732Z,51.20
2023-04-12T03:56:10.827Z,51.11
2023-04-12T04:01:14.224Z,51.24
2023-04-12T04:06:17.823Z,50.88
2023-04-12T04:11:19.888Z,51.63
2023-04-12T04:16:22.098Z,52.28
2023-04-12T04:21:24.370Z,51.49
2023-04-12T04:26:32.779Z,51.30
2023-04-12T04:31:34.960Z,51.88
2023-04-12T04:36:38.339Z,52.10
2023-04-12T04:41:41.671Z,50.71
2023-04-12T04:46:43.918Z,50.64
2023-04-12T04:51:46.239Z,50.70
2023-04-12T04:56:48.431Z,50.26
2023-04-12T05:01:52.779Z,50.00
2023-04-12T05:06:55.123Z,49.79
2023-04-12T05:11:57.232Z,49.70
2023-04-12T05:16:59.532Z,49.83
2023-04-12T05:22:01.785Z,50.34
2023-04-12T05:27:04.058Z,50.61
2023-04-12T05:32:06.345Z,50.44
2023-04-12T05:37:08.586Z,50.19
2023-04-12T05:42:10.821Z,50.19
2023-04-12T05:47:12.961Z,49.82
2023-04-12T05:52:15.151Z,49.82
2023-04-12T05:57:18.058Z,49.65
2023-04-12T06:02:20.407Z,49.55
2023-04-12T06:07:22.724Z,49.43
2023-04-12T06:12:24.982Z,50.50
2023-04-12T06:17:27.052Z,51.66
2023-04-12T06:22:29.207Z,51.98
2023-04-12T06:27:31.502Z,52.88
2023-04-12T06:32:34.264Z,51.92
2023-04-12T06:37:36.467Z,51.67
2023-04-12T06:42:39.007Z,50.57
2023-04-12T06:47:41.148Z,49.66
2023-04-12T06:52:43.370Z,48.50
2023-04-12T06:57:46.850Z,47.87
2023-04-12T07:02:49.497Z,47.14
2023-04-12T07:07:51.694Z,46.32
2023-04-12T07:12:53.871Z,44.73
2023-04-12T07:17:56.635Z,45.58
2023-04-12T07:22:59.010Z,44.82
2023-04-12T07:28:01.126Z,46.51
2023-04-12T07:33:18.661Z,47.48
2023-04-12T07:38:22.144Z,45.08
2023-04-12T07:43:24.349Z,44.08
2023-04-12T07:48:26.910Z,43.11
2023-04-12T07:53:29.486Z,41.66
2023-04-12T07:58:32.972Z,41.19
2023-04-12T08:03:35.229Z,40.85
2023-04-12T08:08:37.443Z,40.38
2023-04-12T08:13:39.651Z,40.82
2023-04-12T08:18:41.924Z,40.47
2023-04-12T08:23:44.138Z,40.33
2023-04-12T08:28:46.416Z,40.90
2023-04-12T08:33:48.572Z,40.07
2023-04-12T08:38:52.823Z,40.25
2023-04-12T08:43:58.690Z,40.38
2023-04-12T08:49:01.141Z,40.64
2023-04-12T08:54:03.353Z,39.73
2023-04-12T08:59:06.822Z,40.69
2023-04-12T09:04:09.438Z,37.83
2023-04-12T09:09:12.006Z,36.17
2023-04-12T09:14:24.638Z,37.03
2023-04-12T09:19:37.280Z,35.91
2023-04-12T09:24:53.253Z,34.12
2023-04-12T09:30:11.013Z,34.30
2023-04-12T09:35:13.102Z,32.26
2023-04-12T09:40:15.264Z,32.42
2023-04-12T09:45:25.891Z,32.48
2023-04-12T09:50:30.649Z,32.70
2023-04-12T09:55:33.024Z,33.33
2023-04-12T10:00:37.179Z,31.55
2023-04-12T10:05:41.550Z,31.85
2023-04-12T10:10:46.828Z,31.59
2023-04-12T10:15:51.368Z,31.16
2023-04-12T10:20:53.678Z,31.66
2023-04-12T10:25:57.496Z,31.49
2023-04-12T10:31:00.322Z,31.47
2023-04-12T10:36:13.396Z,30.80
2023-04-12T10:41:20.990Z,29.09
2023-04-12T10:46:39.570Z,27.00
2023-04-12T10:52:11.151Z,26.48
2023-04-12T10:57:44.436Z,26.78
2023-04-12T11:03:12.938Z,27.16
2023-04-12T11:08:15.822Z,27.06
2023-04-12T11:13:18.071Z,26.73
2023-04-12T11:18:20.393Z,27.43
2023-04-12T11:23:22.775Z,27.28
2023-04-12T11:28:29.241Z,25.86
2023-04-12T11:33:37.312Z,25.57
2023-04-12T11:38:39.696Z,26.02
2023-04-12T11:43:42.877Z,27.53
2023-04-12T11:48:47.305Z,25.91
2023-04-12T11:53:54.008Z,26.89
2023-04-12T11:58:56.252Z,25.79
2023-04-12T12:04:00.314Z,25.80
2023-04-12T12:09:04.364Z,25.48
2023-04-12T12:14:09.292Z,25.71
2023-04-12T12:19:11.361Z,25.83
2023-04-12T12:24:15.118Z,26.60
2023-04-12T12:29:22.456Z,25.80
2023-04-12T12:34:24.676Z,25.34
2023-04-12T12:39:27.230Z,25.36
2023-04-12T12:44:29.353Z,24.60
2023-04-12T12:49:31.779Z,24.56
2023-04-12T12:54:41.273Z,24.58
2023-04-12T12:59:44.029Z,25.38
2023-04-12T13:04:46.470Z,26.48
2023-04-12T13:09:49.009Z,26.55
2023-04-12T13:14:51.203Z,26.68
2023-04-12T13:19:53.611Z,27.90
2023-04-12T13:24:56.396Z,26.58
2023-04-12T13:29:58.623Z,27.36
2023-04-12T13:35:00.977Z,27.03
2023-04-12T13:40:04.138Z,26.94
2023-04-12T13:45:07.506Z,26.48
2023-04-12T13:50:12.396Z,25.77
2023-04-12T13:55:14.500Z,26.01
2023-04-12T14:00:17.276Z,26.29
2023-04-12T14:05:19.604Z,27.13
2023-04-12T14:10:21.934Z,26.97
2023-04-12T14:15:24.170Z,27.33
2023-04-12T14:20:26.606Z,27.78
2023-04-12T14:25:29.065Z,28.12
2023-04-12T14:30:31.628Z,29.06
2023-04-12T14:35:33.710Z,29.64
2023-04-12T14:40:36.755Z,30.75
2023-04-12T14:45:39.113Z,30.27
2023-04-12T14:50:44.172Z,30.11
2023-04-12T14:55:47.188Z,30.31
2023-04-12T15:00:49.905Z,30.99
2023-04-12T15:05:52.056Z,31.81
2023-04-12T15:10:54.135Z,31.73
2023-04-12T15:15:56.517Z,31.82
2023-04-12T15:21:00.532Z,31.91
2023-04-12T15:26:03.736Z,31.73
2023-04-12T15:31:06.596Z,27.49
2023-04-12T15:36:08.937Z,24.96
2023-04-12T15:41:11.447Z,23.05
2023-04-12T15:46:14.793Z,25.30
2023-04-12T15:51:17.044Z,27.59
2023-04-12T15:56:24.357Z,28.73
2023-04-12T16:01:26.794Z,29.64
2023-04-12T16:06:31.864Z,28.95
2023-04-12T16:11:34.406Z,29.81
2023-04-12T16:16:36.976Z,29.93
2023-04-12T16:21:44.574Z,28.58
2023-04-12T16:26:50.220Z,27.90
2023-04-12T16:31:52.560Z,29.55
2023-04-12T16:36:54.820Z,30.65
2023-04-12T16:41:56.994Z,31.75
2023-04-12T16:46:59.624Z,32.29
2023-04-12T16:52:02.784Z,33.13
2023-04-12T16:57:05.310Z,33.27
2023-04-12T17:02:10.842Z,33.95
2023-04-12T17:07:12.999Z,33.82
2023-04-12T17:12:15.078Z,34.22
2023-04-12T17:17:17.177Z,34.27
2023-04-12T17:22:19.567Z,34.66
2023-04-12T17:27:22.158Z,35.03
2023-04-12T17:32:24.339Z,35.04
2023-04-12T17:37:28.044Z,35.30
2023-04-12T17:42:30.284Z,35.14
2023-04-12T17:47:35.372Z,35.11
2023-04-12T17:52:38.293Z,35.37
2023-04-12T17:57:41.010Z,35.61
2023-04-12T18:02:47.382Z,35.80
2023-04-12T18:07:50.156Z,35.65
2023-04-12T18:12:52.562Z,35.81
2023-04-12T18:17:54.720Z,35.91
2023-04-12T18:22:57.171Z,35.96
2023-04-12T18:27:59.410Z,36.62
2023-04-12T18:33:04.115Z,36.55
2023-04-12T18:38:06.414Z,36.65
2023-04-12T18:43:08.828Z,37.22
2023-04-12T18:48:11.213Z,37.35
2023-04-12T18:53:13.566Z,37.23
2023-04-12T18:58:16.425Z,37.58
2023-04-12T19:03:18.948Z,37.53
2023-04-12T19:08:21.591Z,37.46
2023-04-12T19:13:23.847Z,37.93
2023-04-12T19:18:29.798Z,38.23
2023-04-12T19:23:32.631Z,38.75
2023-04-12T19:28:34.775Z,39.21
2023-04-12T19:33:37.511Z,39.94
2023-04-12T19:38:41.738Z,40.23
2023-04-12T19:43:44.150Z,40.70
2023-04-12T19:48:46.785Z,40.69
2023-04-12T19:53:50.946Z,41.17
2023-04-12T19:58:55.249Z,41.58
2023-04-12T20:03:57.456Z,41.97
2023-04-12T20:09:00.944Z,42.51
2023-04-12T20:14:03.442Z,42.32
2023-04-12T20:19:05.650Z,42.47
2023-04-12T20:24:09.080Z,42.06
2023-04-12T20:29:11.512Z,42.65
2023-04-12T20:34:13.704Z,42.42
2023-04-12T20:39:16.695Z,42.62
2023-04-12T20:44:20.006Z,42.74
2023-04-12T20:49:22.219Z,43.01
2023-04-12T20:54:30.339Z,42.96
2023-04-12T20:59:33.750Z,43.09
2023-04-12T21:04:36.648Z,43.11
2023-04-12T21:09:39.540Z,43.23
2023-04-12T21:14:41.666Z,43.46
2023-04-12T21:19:45.225Z,43.53
2023-04-12T21:24:47.434Z,43.61
2023-04-12T21:29:50.500Z,43.76
2023-04-12T21:34:52.702Z,44.27
2023-04-12T21:39:54.884Z,44.77
2023-04-12T21:44:57.076Z,48.76
2023-04-12T21:49:59.428Z,49.31
2023-04-12T21:55:02.177Z,48.58
2023-04-12T22:00:07.560Z,47.71
2023-04-12T22:05:10.256Z,47.12
2023-04-12T22:10:12.604Z,47.14
2023-04-12T22:15:16.749Z,46.11
2023-04-12T22:20:18.953Z,45.81
2023-04-12T22:25:22.302Z,46.20
2023-04-12T22:30:25.392Z,46.22
2023-04-12T22:35:27.620Z,46.25
2023-04-12T22:40:29.744Z,45.88
2023-04-12T22:45:33.576Z,45.94
2023-04-12T22:50:35.778Z,45.83
2023-04-12T22:55:40.103Z,46.15
2023-04-12T23:00:42.221Z,45.89
2023-04-12T23:05:47.636Z,46.02
2023-04-12T23:10:50.251Z,46.38
2023-04-12T23:15:52.464Z,46.54
2023-04-12T23:20:55.375Z,46.76
2023-04-12T23:25:57.566Z,47.11
2023-04-12T23:31:02.632Z,46.86
2023-04-12T23:36:05.848Z,47.45
2023-04-12T23:41:10.517Z,47.36
2023-04-12T23:46:12.822Z,47.54
2023-04-12T23:51:15.443Z,47.94
2023-04-12T23:56:17.764Z,47.36
